createdAt,value
2023-05-01T00:00:13.737Z,976.84
2023-05-01T00:00:43.735Z,976.84
2023-05-01T00:01:15.263Z,976.94
2023-05-01T00:01:47.713Z,977.04
2023-05-01T00:02:19.500Z,977.04
2023-05-01T00:02:51.549Z,977.04
2023-05-01T00:03:23.644Z,977.04
2023-05-01T00:03:55.703Z,976.84
2023-05-01T00:04:27.540Z,976.84
2023-05-01T00:04:59.340Z,976.94
2023-05-01T00:05:31.684Z,976.94
2023-05-01T00:06:04.198Z,977.04
2023-05-01T00:06:35.326Z,977.04
2023-05-01T00:07:07.339Z,977.21
2023-05-01T00:07:39.123Z,977.21
2023-05-01T00:07:55.324Z,977.04
2023-05-01T00:08:27.368Z,977.04
2023-05-01T00:08:43.294Z,977.04
2023-05-01T00:09:15.210Z,976.84
2023-05-01T00:09:47.318Z,976.94
2023-05-01T00:10:19.328Z,976.94
2023-05-01T00:10:51.045Z,976.94
2023-05-01T00:11:23.303Z,976.94
2023-05-01T00:11:54.911Z,976.84
2023-05-01T00:12:11.176Z,976.84
2023-05-01T00:12:43.071Z,976.84
2023-05-01T00:13:27.205Z,976.94
2023-05-01T00:13:58.835Z,976.63
2023-05-01T00:14:30.812Z,976.63
2023-05-01T00:15:05.837Z,977.04
2023-05-01T00:15:34.943Z,977.04
2023-05-01T00:16:06.950Z,976.84
2023-05-01T00:16:38.813Z,976.84
2023-05-01T00:16:55.057Z,976.84
2023-05-01T00:17:38.869Z,976.84
2023-05-01T00:18:10.874Z,977.04
2023-05-01T00:18:42.751Z,977.04
2023-05-01T00:19:14.760Z,976.94
2023-05-01T00:19:46.788Z,976.94
2023-05-01T00:20:18.785Z,976.73
2023-05-01T00:20:50.551Z,976.63
2023-05-01T00:21:22.804Z,976.63
2023-05-01T00:21:54.634Z,976.53
2023-05-01T00:22:26.785Z,976.53
2023-05-01T00:22:58.778Z,976.84
2023-05-01T00:23:30.419Z,976.84
2023-05-01T00:24:03.290Z,976.84
2023-05-01T00:24:34.539Z,976.84
2023-05-01T00:25:06.771Z,976.63
2023-05-01T00:25:38.411Z,976.63
2023-05-01T00:26:10.354Z,976.73
2023-05-01T00:26:42.381Z,976.73
2023-05-01T00:27:14.577Z,976.73
2023-05-01T00:27:46.230Z,976.73
2023-05-01T00:28:18.322Z,976.73
2023-05-01T00:28:50.286Z,976.73
2023-05-01T00:29:21.999Z,976.73
2023-05-01T00:29:54.711Z,976.63
2023-05-01T00:30:11.834Z,976.63
2023-05-01T00:30:42.202Z,976.63
2023-05-01T00:31:26.422Z,976.63
2023-05-01T00:31:58.203Z,976.43
2023-05-01T00:32:30.192Z,976.43
2023-05-01T00:33:02.735Z,976.73
2023-05-01T00:33:34.016Z,976.73
2023-05-01T00:34:05.901Z,976.73
2023-05-01T00:34:37.948Z,976.73
2023-05-01T00:34:54.380Z,976.63
2023-05-01T00:35:39.038Z,976.63
2023-05-01T00:36:09.980Z,976.43
2023-05-01T00:36:41.887Z,976.43
2023-05-01T00:37:13.979Z,976.73
2023-05-01T00:37:46.010Z,976.73
2023-05-01T00:38:18.012Z,976.73
2023-05-01T00:38:49.773Z,976.73
2023-05-01T00:39:21.643Z,976.73
2023-05-01T00:39:54.164Z,976.43
2023-05-01T00:40:26.168Z,976.43
2023-05-01T00:40:57.797Z,976.53
2023-05-01T00:41:29.658Z,976.53
2023-05-01T00:42:02.328Z,976.63
2023-05-01T00:42:33.991Z,976.63
2023-05-01T00:43:05.685Z,976.63
2023-05-01T00:43:37.645Z,976.63
2023-05-01T00:43:53.769Z,976.33
2023-05-01T00:44:25.510Z,976.33
2023-05-01T00:44:41.798Z,976.33
2023-05-01T00:45:16.510Z,976.43
2023-05-01T00:45:45.535Z,976.43
2023-05-01T00:46:17.685Z,976.73
2023-05-01T00:46:49.518Z,976.73
2023-05-01T00:47:21.405Z,976.73
2023-05-01T00:47:53.803Z,976.43
2023-05-01T00:48:25.344Z,976.43
2023-05-01T00:48:57.538Z,976.63
2023-05-01T00:49:29.347Z,976.63
2023-05-01T00:50:02.029Z,976.73
2023-05-01T00:50:33.437Z,976.73
2023-05-01T00:51:05.389Z,976.63
2023-05-01T00:51:37.186Z,976.63
2023-05-01T00:51:53.524Z,976.53
2023-05-01T00:52:37.337Z,976.53
2023-05-01T00:52:53.545Z,976.63
2023-05-01T00:53:37.152Z,976.63
2023-05-01T00:54:09.318Z,976.53
2023-05-01T00:54:41.048Z,976.53
2023-05-01T00:55:13.415Z,976.23
2023-05-01T00:55:45.210Z,976.23
2023-05-01T00:56:17.168Z,976.43
2023-05-01T00:56:48.947Z,976.33
2023-05-01T00:57:21.014Z,976.33
2023-05-01T00:57:53.269Z,976.53
2023-05-01T00:58:24.985Z,976.53
2023-05-01T00:58:57.121Z,976.33
2023-05-01T00:59:29.205Z,976.33
2023-05-01T01:00:02.338Z,976.23
2023-05-01T01:00:32.988Z,976.23
2023-05-01T01:01:05.127Z,976.43
2023-05-01T01:01:38.578Z,976.43
2023-05-01T01:01:54.978Z,976.23
2023-05-01T01:02:24.772Z,976.23
2023-05-01T01:02:40.970Z,976.23
2023-05-01T01:03:12.865Z,976.33
2023-05-01T01:03:44.753Z,976.33
2023-05-01T01:04:17.098Z,976.43
2023-05-01T01:04:48.979Z,976.33
2023-05-01T01:05:21.155Z,976.33
2023-05-01T01:05:52.666Z,976.43
2023-05-01T01:06:08.843Z,976.43
2023-05-01T01:06:40.624Z,976.43
2023-05-01T01:07:24.892Z,976.23
2023-05-01T01:07:56.705Z,976.33
2023-05-01T01:08:12.870Z,976.33
2023-05-01T01:08:44.641Z,976.33
2023-05-01T01:09:28.590Z,976.33
2023-05-01T01:10:01.065Z,976.43
2023-05-01T01:10:32.645Z,976.43
2023-05-01T01:11:04.644Z,976.33
2023-05-01T01:11:36.590Z,976.33
2023-05-01T01:12:08.574Z,976.12
2023-05-01T01:12:40.239Z,976.12
2023-05-01T01:13:12.564Z,976.23
2023-05-01T01:13:44.422Z,976.23
2023-05-01T01:14:16.441Z,976.23
2023-05-01T01:14:48.350Z,976.12
2023-05-01T01:15:22.872Z,976.12
2023-05-01T01:15:52.288Z,976.02
2023-05-01T01:16:24.426Z,976.02
2023-05-01T01:16:56.324Z,976.33
2023-05-01T01:17:28.288Z,976.33
2023-05-01T01:18:00.351Z,976.12
2023-05-01T01:18:32.238Z,976.12
2023-05-01T01:19:04.392Z,976.12
2023-05-01T01:19:36.086Z,976.12
2023-05-01T01:20:08.434Z,976.02
2023-05-01T01:20:40.128Z,976.02
2023-05-01T01:21:12.065Z,976.02
2023-05-01T01:21:44.080Z,976.02
2023-05-01T01:22:15.970Z,976.12
2023-05-01T01:22:48.100Z,976.02
2023-05-01T01:23:19.945Z,976.02
2023-05-01T01:23:51.823Z,976.12
2023-05-01T01:24:08.037Z,976.12
2023-05-01T01:24:39.825Z,976.12
2023-05-01T01:25:24.506Z,976.53
2023-05-01T01:25:55.878Z,976.33
2023-05-01T01:26:28.023Z,976.33
2023-05-01T01:26:59.954Z,976.12
2023-05-01T01:27:31.858Z,976.12
2023-05-01T01:28:04.556Z,976.02
2023-05-01T01:28:19.885Z,976.02
2023-05-01T01:28:51.930Z,976.12
2023-05-01T01:29:35.795Z,976.12
2023-05-01T01:30:08.295Z,976.23
2023-05-01T01:30:39.684Z,976.23
2023-05-01T01:31:11.799Z,976.02
2023-05-01T01:31:43.774Z,976.02
2023-05-01T01:32:15.797Z,976.23
2023-05-01T01:32:47.707Z,976.33
2023-05-01T01:33:19.458Z,976.33
2023-05-01T01:33:51.529Z,976.23
2023-05-01T01:34:23.677Z,976.23
2023-05-01T01:34:55.382Z,976.12
2023-05-01T01:35:27.967Z,976.12
2023-05-01T01:35:59.473Z,976.33
2023-05-01T01:36:31.435Z,976.33
2023-05-01T01:37:03.847Z,975.92
2023-05-01T01:37:35.509Z,975.92
2023-05-01T01:37:51.622Z,976.33
2023-05-01T01:38:23.493Z,976.33
2023-05-01T01:38:39.445Z,976.33
2023-05-01T01:39:11.267Z,976.12
2023-05-01T01:39:43.349Z,976.12
2023-05-01T01:40:15.626Z,976.23
2023-05-01T01:40:47.480Z,976.12
2023-05-01T01:41:19.100Z,976.12
2023-05-01T01:41:51.686Z,976.12
2023-05-01T01:42:07.309Z,976.12
2023-05-01T01:42:39.246Z,976.12
2023-05-01T01:43:23.412Z,976.23
2023-05-01T01:43:55.185Z,976.02
2023-05-01T01:44:27.300Z,976.02
2023-05-01T01:44:59.077Z,976.12
2023-05-01T01:45:31.558Z,976.12
2023-05-01T01:46:03.941Z,976.33
2023-05-01T01:46:35.056Z,976.33
2023-05-01T01:46:51.241Z,976.02
2023-05-01T01:47:34.914Z,976.02
2023-05-01T01:48:07.272Z,976.23
2023-05-01T01:48:38.853Z,976.23
2023-05-01T01:49:10.815Z,976.23
2023-05-01T01:49:43.057Z,976.23
2023-05-01T01:50:15.130Z,976.02
2023-05-01T01:50:46.868Z,976.02
2023-05-01T01:51:18.888Z,976.12
2023-05-01T01:51:50.814Z,976.02
2023-05-01T01:52:22.817Z,976.02
2023-05-01T01:52:54.704Z,976.12
2023-05-01T01:53:26.780Z,976.12
2023-05-01T01:53:58.706Z,976.23
2023-05-01T01:54:30.778Z,976.23
2023-05-01T01:55:03.443Z,976.12
2023-05-01T01:55:34.584Z,976.12
2023-05-01T01:55:50.947Z,976.12
2023-05-01T01:56:22.509Z,976.12
2023-05-01T01:56:38.654Z,976.12
2023-05-01T01:57:10.418Z,976.12
2023-05-01T01:57:42.609Z,976.12
2023-05-01T01:58:14.490Z,976.12
2023-05-01T01:58:46.586Z,976.12
2023-05-01T01:59:18.506Z,976.02
2023-05-01T01:59:50.497Z,975.92
2023-05-01T02:00:08.259Z,975.92
2023-05-01T02:00:38.474Z,975.92
2023-05-01T02:01:22.354Z,976.02
2023-05-01T02:01:54.436Z,976.02
2023-05-01T02:02:26.765Z,976.02
2023-05-01T02:02:58.429Z,975.92
2023-05-01T02:03:30.545Z,975.92
2023-05-01T02:04:02.914Z,975.92
2023-05-01T02:04:34.253Z,975.92
2023-05-01T02:04:50.342Z,975.92
2023-05-01T02:05:34.643Z,975.92
2023-05-01T02:06:06.281Z,975.82
2023-05-01T02:06:38.122Z,975.82
2023-05-01T02:07:10.121Z,976.12
2023-05-01T02:07:42.220Z,976.12
2023-05-01T02:08:14.141Z,976.02
2023-05-01T02:08:46.114Z,976.02
2023-05-01T02:09:18.099Z,975.92
2023-05-01T02:09:50.026Z,976.02
2023-05-01T02:10:22.371Z,976.02
2023-05-01T02:10:53.985Z,975.82
2023-05-01T02:11:25.811Z,975.82
2023-05-01T02:11:58.119Z,975.82
2023-05-01T02:12:29.912Z,975.82
2023-05-01T02:13:01.820Z,975.82
2023-05-01T02:13:33.871Z,975.82
2023-05-01T02:13:49.993Z,975.82
2023-05-01T02:14:21.869Z,975.82
2023-05-01T02:14:37.899Z,975.82
2023-05-01T02:15:11.305Z,975.72
2023-05-01T02:15:41.859Z,975.72
2023-05-01T02:16:13.808Z,975.82
2023-05-01T02:16:45.853Z,975.82
2023-05-01T02:17:17.879Z,975.72
2023-05-01T02:17:49.659Z,975.82
2023-05-01T02:18:05.731Z,975.82
2023-05-01T02:18:37.569Z,975.82
2023-05-01T02:19:21.678Z,975.92
2023-05-01T02:19:53.768Z,975.72
2023-05-01T02:20:25.737Z,975.72
2023-05-01T02:20:57.669Z,975.82
2023-05-01T02:21:29.644Z,975.82
2023-05-01T02:22:02.310Z,975.82
2023-05-01T02:22:33.478Z,975.82
2023-05-01T02:23:05.646Z,975.52
2023-05-01T02:23:37.543Z,975.52
2023-05-01T02:24:09.384Z,975.82
2023-05-01T02:24:41.426Z,975.82
2023-05-01T02:25:13.661Z,975.82
2023-05-01T02:25:45.414Z,975.82
2023-05-01T02:26:17.226Z,975.72
2023-05-01T02:26:49.414Z,975.92
2023-05-01T02:27:05.595Z,975.92
2023-05-01T02:27:49.541Z,975.72
2023-05-01T02:28:21.486Z,975.72
2023-05-01T02:28:53.141Z,975.62
2023-05-01T02:29:25.349Z,975.62
2023-05-01T02:29:57.798Z,975.82
2023-05-01T02:30:29.698Z,975.82
2023-05-01T02:31:01.246Z,975.62
2023-05-01T02:31:33.485Z,975.62
2023-05-01T02:31:49.595Z,975.92
2023-05-01T02:32:21.331Z,975.92
2023-05-01T02:32:37.459Z,975.92
2023-05-01T02:33:09.325Z,975.82
2023-05-01T02:33:40.942Z,975.82
2023-05-01T02:34:13.343Z,975.72
2023-05-01T02:34:45.223Z,975.72
2023-05-01T02:35:17.188Z,976.02
2023-05-01T02:35:49.147Z,975.72
2023-05-01T02:36:05.496Z,975.72
2023-05-01T02:36:37.048Z,975.72
2023-05-01T02:37:21.033Z,975.82
2023-05-01T02:37:52.726Z,975.62
2023-05-01T02:38:08.997Z,975.62
2023-05-01T02:38:40.890Z,975.62
2023-05-01T02:39:25.019Z,975.52
2023-05-01T02:39:57.248Z,975.62
2023-05-01T02:40:29.031Z,975.62
2023-05-01T02:41:00.854Z,975.52
2023-05-01T02:41:32.832Z,975.52
2023-05-01T02:42:05.215Z,975.41
2023-05-01T02:42:36.952Z,975.41
2023-05-01T02:43:08.682Z,975.62
2023-05-01T02:43:40.720Z,975.62
2023-05-01T02:44:12.927Z,975.21
2023-05-01T02:44:44.515Z,975.21
2023-05-01T02:45:18.456Z,975.41
2023-05-01T02:45:48.857Z,975.41
2023-05-01T02:46:20.798Z,975.41
2023-05-01T02:46:52.412Z,975.41
2023-05-01T02:47:24.559Z,975.41
2023-05-01T02:47:56.579Z,975.52
2023-05-01T02:48:28.848Z,975.52
2023-05-01T02:49:00.448Z,975.62
2023-05-01T02:49:32.375Z,975.62
2023-05-01T02:49:48.911Z,975.62
2023-05-01T02:50:21.385Z,975.62
2023-05-01T02:50:37.688Z,975.62
2023-05-01T02:51:08.353Z,975.31
2023-05-01T02:51:40.338Z,975.31
2023-05-01T02:52:12.467Z,975.31
2023-05-01T02:52:44.277Z,975.31
2023-05-01T02:53:16.231Z,975.41
2023-05-01T02:53:48.514Z,975.52
2023-05-01T02:54:05.171Z,975.52
2023-05-01T02:54:36.089Z,975.52
2023-05-01T02:55:20.443Z,975.41
2023-05-01T02:55:52.063Z,975.52
2023-05-01T02:56:24.334Z,975.52
2023-05-01T02:56:55.947Z,975.41
2023-05-01T02:57:28.502Z,975.41
2023-05-01T02:58:00.256Z,975.62
2023-05-01T02:58:31.960Z,975.62
2023-05-01T02:58:48.310Z,975.41
2023-05-01T02:59:32.053Z,975.41
2023-05-01T03:00:06.326Z,975.11
2023-05-01T03:00:35.785Z,975.11
2023-05-01T03:01:07.985Z,975.41
2023-05-01T03:01:40.077Z,975.41
2023-05-01T03:02:12.057Z,975.62
2023-05-01T03:02:43.903Z,975.62
2023-05-01T03:03:15.927Z,975.52
2023-05-01T03:03:48.038Z,975.52
2023-05-01T03:04:20.022Z,975.52
2023-05-01T03:04:51.607Z,975.72
2023-05-01T03:05:24.107Z,975.72
2023-05-01T03:05:55.713Z,975.72
2023-05-01T03:06:28.007Z,975.72
2023-05-01T03:06:59.536Z,975.52
2023-05-01T03:07:31.682Z,975.52
2023-05-01T03:07:48.108Z,975.41
2023-05-01T03:08:19.651Z,975.41
2023-05-01T03:08:35.536Z,975.41
2023-05-01T03:09:07.517Z,975.41
2023-05-01T03:09:39.557Z,975.41
2023-05-01T03:10:11.833Z,975.62
2023-05-01T03:10:43.608Z,975.62
2023-05-01T03:11:15.638Z,975.72
2023-05-01T03:11:47.433Z,975.52
2023-05-01T03:12:04.488Z,975.52
2023-05-01T03:12:35.302Z,975.52
2023-05-01T03:13:19.498Z,975.52
2023-05-01T03:13:51.185Z,975.62
2023-05-01T03:14:23.263Z,975.62
2023-05-01T03:14:55.330Z,975.62
2023-05-01T03:15:27.956Z,975.62
2023-05-01T03:15:59.474Z,975.52
2023-05-01T03:16:31.216Z,975.52
2023-05-01T03:16:47.514Z,975.31
2023-05-01T03:17:31.328Z,975.31
2023-05-01T03:18:04.426Z,975.31
2023-05-01T03:18:35.094Z,975.31
2023-05-01T03:19:07.109Z,975.31
2023-05-01T03:19:39.158Z,975.31
2023-05-01T03:20:11.378Z,975.31
2023-05-01T03:20:43.238Z,975.31
2023-05-01T03:21:14.994Z,975.52
2023-05-01T03:21:47.199Z,975.52
2023-05-01T03:22:19.157Z,975.31
2023-05-01T03:22:51.165Z,975.52
2023-05-01T03:23:22.985Z,975.52
2023-05-01T03:23:55.046Z,975.31
2023-05-01T03:24:26.977Z,975.31
2023-05-01T03:24:58.969Z,975.41
2023-05-01T03:25:31.139Z,975.41
2023-05-01T03:25:47.139Z,975.41
2023-05-01T03:26:18.890Z,975.31
2023-05-01T03:26:34.938Z,975.31
2023-05-01T03:27:06.922Z,975.41
2023-05-01T03:27:38.635Z,975.41
2023-05-01T03:28:10.842Z,975.41
2023-05-01T03:28:42.961Z,975.41
2023-05-01T03:29:14.536Z,975.52
2023-05-01T03:29:46.860Z,975.52
2023-05-01T03:30:20.364Z,975.31
2023-05-01T03:30:50.713Z,975.52
2023-05-01T03:31:22.517Z,975.52
2023-05-01T03:31:54.821Z,975.31
2023-05-01T03:32:26.930Z,975.31
2023-05-01T03:32:58.857Z,975.52
2023-05-01T03:33:30.608Z,975.52
2023-05-01T03:33:46.800Z,975.52
2023-05-01T03:34:30.520Z,975.52
2023-05-01T03:35:03.254Z,975.41
2023-05-01T03:35:34.772Z,975.41
2023-05-01T03:36:06.370Z,975.52
2023-05-01T03:36:38.371Z,975.52
2023-05-01T03:37:11.982Z,975.41
2023-05-01T03:37:42.570Z,975.41
2023-05-01T03:38:14.440Z,975.21
2023-05-01T03:38:46.341Z,975.21
2023-05-01T03:39:02.646Z,975.31
2023-05-01T03:39:46.333Z,975.31
2023-05-01T03:40:18.699Z,975.41
2023-05-01T03:40:50.226Z,975.21
2023-05-01T03:41:22.186Z,975.21
2023-05-01T03:41:54.306Z,975.11
2023-05-01T03:42:26.238Z,975.11
2023-05-01T03:42:58.328Z,975.21
2023-05-01T03:43:30.124Z,975.21
2023-05-01T03:44:02.438Z,975.11
2023-05-01T03:44:34.121Z,975.11
2023-05-01T03:45:06.940Z,975.21
2023-05-01T03:45:38.225Z,975.21
2023-05-01T03:46:10.121Z,975.21
2023-05-01T03:46:42.144Z,975.21
2023-05-01T03:47:14.062Z,975.21
2023-05-01T03:47:46.049Z,975.21
2023-05-01T03:48:02.365Z,975.11
2023-05-01T03:48:34.032Z,975.11
2023-05-01T03:49:18.213Z,975.21
2023-05-01T03:49:49.989Z,975.21
2023-05-01T03:50:22.097Z,975.21
2023-05-01T03:50:53.902Z,975.31
2023-05-01T03:51:25.996Z,975.31
2023-05-01T03:51:57.819Z,975.21
2023-05-01T03:52:29.860Z,975.21
2023-05-01T03:52:45.966Z,975.21
2023-05-01T03:53:29.828Z,975.21
2023-05-01T03:54:02.081Z,974.94
2023-05-01T03:54:33.696Z,974.94
2023-05-01T03:55:05.865Z,975.11
2023-05-01T03:55:37.771Z,975.11
2023-05-01T03:56:09.676Z,975.21
2023-05-01T03:56:41.428Z,975.21
2023-05-01T03:57:13.669Z,975.21
2023-05-01T03:57:45.546Z,975.21
2023-05-01T03:58:17.594Z,975.21
2023-05-01T03:58:49.480Z,975.11
2023-05-01T03:59:21.448Z,975.11
2023-05-01T03:59:53.581Z,975.21
2023-05-01T04:00:25.879Z,975.21
2023-05-01T04:00:57.665Z,975.11
2023-05-01T04:01:29.480Z,975.11
2023-05-01T04:02:01.708Z,975.21
2023-05-01T04:02:33.488Z,975.21
2023-05-01T04:03:05.829Z,975.21
2023-05-01T04:03:37.529Z,975.21
2023-05-01T04:04:09.621Z,975.21
2023-05-01T04:04:41.434Z,975.21
2023-05-01T04:05:13.568Z,975.01
2023-05-01T04:05:45.220Z,975.01
2023-05-01T04:06:01.611Z,975.11
2023-05-01T04:06:33.087Z,975.11
2023-05-01T04:07:17.509Z,975.41
2023-05-01T04:07:49.268Z,975.11
2023-05-01T04:08:21.047Z,975.11
2023-05-01T04:08:53.247Z,975.41
2023-05-01T04:09:25.272Z,975.41
2023-05-01T04:09:57.428Z,975.21
2023-05-01T04:10:29.533Z,975.21
2023-05-01T04:11:01.422Z,975.41
2023-05-01T04:11:33.166Z,975.41
2023-05-01T04:12:05.405Z,975.21
2023-05-01T04:12:37.176Z,975.21
2023-05-01T04:13:09.146Z,975.21
2023-05-01T04:13:41.018Z,975.21
2023-05-01T04:14:12.900Z,975.21
2023-05-01T04:14:44.847Z,975.21
2023-05-01T04:15:03.048Z,975.11
2023-05-01T04:15:44.821Z,975.11
2023-05-01T04:16:17.095Z,975.41
2023-05-01T04:16:48.783Z,975.11
2023-05-01T04:17:20.719Z,975.11
2023-05-01T04:17:52.914Z,975.21
2023-05-01T04:18:24.791Z,975.21
2023-05-01T04:18:56.554Z,975.11
2023-05-01T04:19:28.858Z,975.11
2023-05-01T04:20:01.666Z,975.21
2023-05-01T04:20:32.842Z,975.21
2023-05-01T04:21:05.151Z,975.11
2023-05-01T04:21:36.752Z,975.11
2023-05-01T04:22:09.065Z,975.21
2023-05-01T04:22:40.793Z,975.21
2023-05-01T04:23:12.920Z,975.11
2023-05-01T04:23:44.872Z,975.11
2023-05-01T04:24:16.868Z,975.21
2023-05-01T04:24:48.911Z,975.11
2023-05-01T04:25:20.929Z,975.11
2023-05-01T04:25:52.656Z,975.21
2023-05-01T04:26:24.526Z,975.21
2023-05-01T04:26:56.665Z,975.21
2023-05-01T04:27:28.774Z,975.21
2023-05-01T04:27:44.703Z,975.21
2023-05-01T04:28:28.707Z,975.31
2023-05-01T04:29:00.555Z,975.11
2023-05-01T04:29:32.664Z,975.11
2023-05-01T04:30:06.532Z,975.21
2023-05-01T04:30:36.276Z,975.21
2023-05-01T04:31:08.669Z,975.31
2023-05-01T04:31:40.554Z,975.31
2023-05-01T04:32:12.235Z,975.52
2023-05-01T04:32:44.430Z,975.52
2023-05-01T04:33:16.302Z,975.11
2023-05-01T04:33:48.416Z,975.21
2023-05-01T04:34:20.260Z,975.21
2023-05-01T04:34:52.094Z,975.41
2023-05-01T04:35:24.414Z,975.41
2023-05-01T04:35:56.201Z,975.21
2023-05-01T04:36:28.323Z,975.21
2023-05-01T04:36:44.594Z,975.21
2023-05-01T04:37:16.282Z,975.11
2023-05-01T04:38:00.168Z,975.31
2023-05-01T04:38:32.262Z,975.31
2023-05-01T04:39:04.396Z,975.31
2023-05-01T04:39:35.854Z,975.31
2023-05-01T04:40:40.105Z,975.21
2023-05-01T04:41:11.770Z,975.11
2023-05-01T04:41:44.128Z,975.11
2023-05-01T04:42:15.942Z,975.31
2023-05-01T04:42:47.938Z,975.31
2023-05-01T04:43:19.964Z,975.31
2023-05-01T04:43:51.750Z,975.21
2023-05-01T04:44:23.928Z,975.21
2023-05-01T04:44:55.827Z,975.31
2023-05-01T04:45:28.297Z,975.31
2023-05-01T04:46:00.029Z,975.11
2023-05-01T04:46:31.728Z,975.11
2023-05-01T04:47:04.515Z,975.31
2023-05-01T04:47:36.001Z,975.31
2023-05-01T04:48:07.582Z,975.31
2023-05-01T04:48:39.686Z,975.31
2023-05-01T04:49:11.719Z,975.41
2023-05-01T04:49:43.629Z,975.41
2023-05-01T04:49:59.856Z,975.31
2023-05-01T04:50:44.171Z,975.31
2023-05-01T04:51:15.448Z,975.31
2023-05-01T04:51:47.600Z,975.31
2023-05-01T04:52:19.509Z,975.31
2023-05-01T04:52:51.340Z,975.31
2023-05-01T04:53:23.620Z,975.31
2023-05-01T04:53:55.437Z,975.11
2023-05-01T04:54:27.241Z,975.11
2023-05-01T04:54:43.614Z,975.11
2023-05-01T04:55:15.643Z,975.31
2023-05-01T04:55:59.867Z,975.21
2023-05-01T04:56:31.378Z,975.21
2023-05-01T04:57:03.600Z,975.31
2023-05-01T04:57:35.402Z,975.31
2023-05-01T04:58:07.230Z,975.41
2023-05-01T04:58:39.484Z,975.41
2023-05-01T04:59:11.114Z,975.52
2023-05-01T04:59:43.300Z,975.52
2023-05-01T05:00:16.333Z,975.41
2023-05-01T05:00:47.342Z,975.41
2023-05-01T05:01:18.954Z,975.21
2023-05-01T05:01:51.211Z,975.41
2023-05-01T05:02:23.251Z,975.41
2023-05-01T05:02:55.195Z,975.11
2023-05-01T05:03:27.036Z,975.11
2023-05-01T05:03:43.375Z,975.11
2023-05-01T05:04:26.967Z,975.31
2023-05-01T05:04:59.260Z,975.41
2023-05-01T05:05:31.198Z,975.41
2023-05-01T05:06:03.624Z,975.31
2023-05-01T05:06:34.935Z,975.31
2023-05-01T05:07:06.863Z,975.21
2023-05-01T05:07:39.098Z,975.21
2023-05-01T05:08:10.809Z,975.11
2023-05-01T05:08:42.742Z,975.11
2023-05-01T05:09:15.687Z,975.21
2023-05-01T05:09:46.796Z,975.21
2023-05-01T05:10:18.909Z,975.21
2023-05-01T05:10:50.703Z,975.31
2023-05-01T05:11:22.715Z,975.31
2023-05-01T05:11:54.759Z,975.31
2023-05-01T05:12:26.605Z,975.31
2023-05-01T05:12:58.873Z,975.01
2023-05-01T05:13:30.571Z,975.01
2023-05-01T05:14:03.368Z,975.31
2023-05-01T05:14:34.547Z,975.31
2023-05-01T05:15:10.027Z,975.21
2023-05-01T05:15:38.670Z,975.21
2023-05-01T05:16:10.616Z,975.21
2023-05-01T05:16:42.612Z,975.21
2023-05-01T05:16:58.989Z,975.31
2023-05-01T05:17:30.477Z,975.31
2023-05-01T05:18:14.678Z,975.31
2023-05-01T05:18:46.476Z,975.31
2023-05-01T05:19:18.454Z,975.21
2023-05-01T05:19:50.478Z,975.21
2023-05-01T05:20:22.742Z,975.21
2023-05-01T05:20:54.587Z,975.11
2023-05-01T05:21:26.238Z,975.11
2023-05-01T05:21:42.470Z,975.11
2023-05-01T05:22:26.263Z,975.31
2023-05-01T05:22:58.449Z,975.01
2023-05-01T05:23:30.150Z,975.01
2023-05-01T05:24:02.669Z,975.31
2023-05-01T05:24:34.048Z,975.31
2023-05-01T05:25:06.382Z,975.21
2023-05-01T05:25:38.125Z,975.21
2023-05-01T05:26:10.036Z,975.31
2023-05-01T05:26:42.163Z,975.31
2023-05-01T05:27:14.103Z,975.21
2023-05-01T05:27:45.864Z,975.21
2023-05-01T05:28:18.292Z,975.21
2023-05-01T05:28:50.037Z,975.21
2023-05-01T05:29:21.872Z,975.21
2023-05-01T05:29:53.960Z,975.41
2023-05-01T05:30:26.288Z,975.41
2023-05-01T05:30:57.991Z,975.01
2023-05-01T05:31:30.208Z,975.01
2023-05-01T05:32:02.424Z,975.21
2023-05-01T05:32:33.845Z,975.21
2023-05-01T05:33:05.872Z,975.31
2023-05-01T05:33:37.873Z,975.31
2023-05-01T05:34:09.753Z,975.21
2023-05-01T05:34:41.746Z,975.21
2023-05-01T05:35:14.172Z,975.31
2023-05-01T05:35:45.578Z,975.31
2023-05-01T05:36:17.628Z,975.21
2023-05-01T05:36:49.670Z,975.31
2023-05-01T05:37:21.783Z,975.31
2023-05-01T05:37:53.849Z,975.31
2023-05-01T05:38:25.448Z,975.31
2023-05-01T05:38:41.768Z,975.31
2023-05-01T05:39:25.481Z,975.41
2023-05-01T05:39:57.962Z,975.21
2023-05-01T05:40:29.846Z,975.21
2023-05-01T05:41:01.788Z,975.31
2023-05-01T05:41:33.549Z,975.31
2023-05-01T05:42:05.619Z,975.21
2023-05-01T05:42:37.279Z,975.21
2023-05-01T05:43:09.471Z,975.52
2023-05-01T05:43:41.360Z,975.52
2023-05-01T05:44:13.451Z,975.21
2023-05-01T05:44:45.471Z,975.21
2023-05-01T05:45:18.489Z,975.31
2023-05-01T05:45:49.445Z,975.41
2023-05-01T05:46:21.373Z,975.41
2023-05-01T05:46:53.180Z,975.52
2023-05-01T05:47:25.090Z,975.52
2023-05-01T05:47:41.314Z,975.52
2023-05-01T05:48:13.186Z,975.62
2023-05-01T05:48:29.429Z,975.62
2023-05-01T05:49:01.073Z,975.41
2023-05-01T05:49:33.121Z,975.41
2023-05-01T05:50:05.706Z,975.41
2023-05-01T05:50:37.102Z,975.41
2023-05-01T05:51:09.095Z,975.31
2023-05-01T05:51:41.028Z,975.31
2023-05-01T05:51:57.130Z,975.21
2023-05-01T05:52:29.108Z,975.21
2023-05-01T05:53:13.020Z,975.62
2023-05-01T05:53:45.015Z,975.62
2023-05-01T05:54:16.967Z,975.41
2023-05-01T05:54:48.898Z,975.41
2023-05-01T05:55:21.175Z,975.41
2023-05-01T05:55:52.748Z,975.21
2023-05-01T05:56:24.697Z,975.21
2023-05-01T05:56:41.094Z,975.21
2023-05-01T05:57:24.835Z,975.41
2023-05-01T05:57:56.782Z,975.41
2023-05-01T05:58:28.850Z,975.41
2023-05-01T05:59:00.864Z,975.62
2023-05-01T05:59:32.686Z,975.62
2023-05-01T06:00:08.547Z,975.41
2023-05-01T06:00:36.657Z,975.41
2023-05-01T06:01:08.913Z,975.41
2023-05-01T06:01:40.621Z,975.41
2023-05-01T06:02:12.805Z,975.21
2023-05-01T06:02:44.729Z,975.21
2023-05-01T06:03:16.589Z,975.52
2023-05-01T06:03:48.587Z,975.31
2023-05-01T06:04:20.522Z,975.31
2023-05-01T06:04:52.222Z,975.41
2023-05-01T06:05:24.766Z,975.41
2023-05-01T06:05:40.703Z,975.41
2023-05-01T06:06:12.444Z,975.41
2023-05-01T06:06:28.589Z,975.41
2023-05-01T06:07:00.433Z,975.31
2023-05-01T06:07:32.200Z,975.31
2023-05-01T06:08:04.362Z,975.41
2023-05-01T06:08:36.313Z,975.41
2023-05-01T06:09:08.347Z,975.62
2023-05-01T06:09:40.363Z,975.62
2023-05-01T06:10:12.491Z,975.31
2023-05-01T06:10:45.791Z,975.31
2023-05-01T06:11:16.109Z,975.41
2023-05-01T06:11:48.306Z,975.31
2023-05-01T06:12:20.349Z,975.31
2023-05-01T06:12:55.054Z,975.11
2023-05-01T06:13:24.057Z,975.11
2023-05-01T06:13:40.132Z,975.11
2023-05-01T06:14:24.111Z,975.41
2023-05-01T06:14:56.060Z,975.52
2023-05-01T06:15:28.531Z,975.52
2023-05-01T06:16:00.282Z,975.31
2023-05-01T06:16:31.906Z,975.31
2023-05-01T06:17:04.621Z,975.41
2023-05-01T06:17:36.180Z,975.41
2023-05-01T06:18:08.165Z,975.21
2023-05-01T06:18:40.054Z,975.21
2023-05-01T06:19:11.972Z,975.31
2023-05-01T06:19:43.770Z,975.31
2023-05-01T06:20:16.230Z,975.52
2023-05-01T06:20:47.999Z,975.41
2023-05-01T06:21:19.864Z,975.41
2023-05-01T06:21:51.795Z,975.41
2023-05-01T06:22:23.679Z,975.41
2023-05-01T06:22:55.543Z,975.41
2023-05-01T06:23:27.832Z,975.41
2023-05-01T06:23:59.960Z,975.21
2023-05-01T06:24:31.590Z,975.21
2023-05-01T06:25:04.274Z,975.52
2023-05-01T06:25:35.599Z,975.52
2023-05-01T06:26:07.586Z,975.52
2023-05-01T06:26:39.728Z,975.52
2023-05-01T06:26:55.602Z,975.31
2023-05-01T06:27:27.557Z,975.31
2023-05-01T06:28:11.462Z,975.11
2023-05-01T06:28:43.284Z,975.11
2023-05-01T06:29:15.444Z,975.31
2023-05-01T06:29:47.452Z,975.31
2023-05-01T06:30:20.693Z,975.31